Time;durP1;ratioP1;P1;durP2;ratioP2;P2;SDS_P1;SDS_P2;PMS_P1;PMS_P2;Temp;Humidity;BMP_temperature;BMP_pressure;BME280_temperature;BME280_humidity;BME280_pressure;Samples;Min_cycle;Max_cycle;Signal;HPM_P1;HPM_P2
2022/07/29 00:00:15;;;;;;;0.45;0.45;;;20.10;93.40;;;;;;5036718;28;21133;-56
2022/07/29 00:02:41;;;;;;;0.40;0.40;;;19.90;93.50;;;;;;5026860;28;20442;-56
2022/07/29 00:05:09;;;;;;;0.30;0.30;;;19.90;93.70;;;;;;5021076;28;21151;-56
2022/07/29 00:07:36;;;;;;;0.40;0.40;;;19.90;93.90;;;;;;5032746;28;20707;-56
2022/07/29 00:10:04;;;;;;;0.40;0.40;;;19.90;93.70;;;;;;5033622;28;20521;-56
2022/07/29 00:12:31;;;;;;;0.55;0.55;;;20.00;93.60;;;;;;5024448;28;20515;-56
2022/07/29 00:15:00;;;;;;;1.00;0.30;;;20.10;93.40;;;;;;5015638;28;20767;-56
2022/07/29 00:17:26;;;;;;;0.40;0.40;;;20.30;93.10;;;;;;5036276;28;20426;-56
2022/07/29 00:19:56;;;;;;;0.40;0.40;;;20.40;93.20;;;;;;5010725;28;21799;-56
2022/07/29 00:22:23;;;;;;;0.20;0.20;;;20.50;92.80;;;;;;5027944;28;20490;-56
2022/07/29 00:24:50;;;;;;;0.40;0.40;;;20.60;92.70;;;;;;5028328;28;20494;-56
2022/07/29 00:27:19;;;;;;;0.23;0.23;;;20.70;92.30;;;;;;5019671;28;20513;-56
2022/07/29 00:29:46;;;;;;;0.40;0.30;;;20.80;92.30;;;;;;5041983;28;20443;-57
2022/07/29 00:32:13;;;;;;;0.40;0.40;;;20.80;92.10;;;;;;5035482;28;20844;-56
2022/07/29 00:37:25;;;;;;;0.40;0.40;;;20.80;92.10;;;;;;5032831;28;20493;-56
2022/07/29 00:39:52;;;;;;;0.47;0.47;;;20.80;92.20;;;;;;5026927;28;20526;-56
2022/07/29 00:42:19;;;;;;;0.40;0.40;;;20.70;92.20;;;;;;5035653;28;20465;-56
2022/07/29 00:44:46;;;;;;;0.60;0.40;;;20.70;92.20;;;;;;5026182;28;20434;-56
2022/07/29 00:47:13;;;;;;;0.47;0.47;;;20.70;92.20;;;;;;5032704;28;20857;-56
2022/07/29 00:49:41;;;;;;;0.38;0.38;;;20.70;92.20;;;;;;5033525;28;20433;-57
2022/07/29 00:52:10;;;;;;;0.40;0.40;;;20.70;92.10;;;;;;5035612;28;20918;-56
2022/07/29 00:54:39;;;;;;;0.40;0.40;;;20.80;92.00;;;;;;5036750;28;20463;-56
2022/07/29 00:57:11;;;;;;;0.33;0.33;;;20.80;91.80;;;;;;5032706;28;20444;-56
2022/07/29 00:59:41;;;;;;;0.30;0.30;;;20.90;92.00;;;;;;5032621;28;20562;-56
2022/07/29 01:02:08;;;;;;;0.30;0.30;;;20.80;91.90;;;;;;5027891;28;20434;-57
2022/07/29 01:04:35;;;;;;;0.28;0.28;;;20.80;91.90;;;;;;5035026;28;20501;-56
2022/07/29 01:07:03;;;;;;;0.40;0.40;;;20.80;92.10;;;;;;5023817;28;20792;-56
2022/07/29 01:09:32;;;;;;;0.30;0.30;;;20.70;91.90;;;;;;5019871;28;20470;-56
2022/07/29 01:12:12;;;;;;;0.30;0.30;;;20.70;92.10;;;;;;5019414;28;20436;-57
2022/07/29 01:14:40;;;;;;;0.50;0.50;;;20.70;91.90;;;;;;5025803;28;20426;-56
2022/07/29 01:17:16;;;;;;;0.40;0.40;;;20.70;92.00;;;;;;5027678;28;20877;-56
2022/07/29 01:20:09;;;;;;;0.40;0.40;;;20.70;91.90;;;;;;5025639;28;20517;-57
2022/07/29 01:23:21;;;;;;;0.40;0.40;;;20.70;91.80;;;;;;5028873;28;20485;-57
2022/07/29 01:26:05;;;;;;;0.50;0.50;;;20.60;91.70;;;;;;5022443;28;20439;-57
2022/07/29 01:28:37;;;;;;;0.70;0.45;;;20.60;91.80;;;;;;5027089;28;20506;-56
2022/07/29 01:31:07;;;;;;;0.50;0.35;;;20.60;91.70;;;;;;5030949;28;20430;-56
2022/07/29 01:33:50;;;;;;;0.40;0.40;;;20.60;91.70;;;;;;5018943;28;20462;-56
2022/07/29 01:36:25;;;;;;;0.30;0.30;;;20.60;91.70;;;;;;5024862;28;20466;-56
2022/07/29 01:39:09;;;;;;;0.40;0.40;;;20.50;91.70;;;;;;5029589;28;20524;-56
2022/07/29 01:41:41;;;;;;;0.35;0.35;;;20.50;91.80;;;;;;5025924;28;20461;-56
2022/07/29 01:44:45;;;;;;;0.35;0.35;;;20.50;91.90;;;;;;5032457;28;20517;-56
2022/07/29 01:47:20;;;;;;;0.30;0.30;;;20.40;91.80;;;;;;5023243;28;20913;-56
2022/07/29 01:49:51;;;;;;;0.50;0.50;;;20.40;91.80;;;;;;5022396;28;20596;-56
2022/07/29 01:52:32;;;;;;;0.43;0.43;;;20.30;91.90;;;;;;5023593;28;20427;-56
2022/07/29 01:55:02;;;;;;;0.40;0.40;;;20.20;92.00;;;;;;5025159;28;20502;-56
2022/07/29 01:57:33;;;;;;;0.40;0.40;;;20.20;92.10;;;;;;5027414;28;20445;-56
2022/07/29 02:00:01;;;;;;;0.50;0.50;;;20.20;92.00;;;;;;5025711;28;20571;-57
2022/07/29 02:02:30;;;;;;;0.50;0.50;;;20.10;92.00;;;;;;5031777;28;20440;-57
2022/07/29 02:04:58;;;;;;;0.40;0.40;;;20.00;92.00;;;;;;5016361;28;20434;-57
2022/07/29 02:07:29;;;;;;;0.37;0.33;;;20.10;92.00;;;;;;5032646;28;20431;-57
2022/07/29 02:09:58;;;;;;;0.50;0.40;;;20.10;92.00;;;;;;5038326;28;20430;-57
2022/07/29 02:12:25;;;;;;;1.48;0.40;;;20.10;92.00;;;;;;5032482;28;20481;-57
2022/07/29 02:14:54;;;;;;;0.40;0.40;;;20.20;92.00;;;;;;5011820;28;20521;-57
2022/07/29 02:17:32;;;;;;;0.40;0.40;;;20.20;92.10;;;;;;5032233;28;20435;-57
2022/07/29 02:20:08;;;;;;;0.43;0.40;;;20.10;92.10;;;;;;5020646;28;20530;-57
2022/07/29 02:22:37;;;;;;;0.40;0.40;;;20.10;92.10;;;;;;5025539;28;20913;-57
2022/07/29 02:25:06;;;;;;;0.50;0.50;;;20.10;92.10;;;;;;5028381;28;20425;-57
2022/07/29 02:27:42;;;;;;;0.60;0.60;;;20.00;92.10;;;;;;5033559;28;22115;-57
2022/07/29 02:30:10;;;;;;;0.40;0.40;;;20.00;92.20;;;;;;5019058;28;20434;-57
2022/07/29 02:32:39;;;;;;;0.50;0.50;;;20.00;92.20;;;;;;5033625;28;20461;-56
2022/07/29 02:35:09;;;;;;;0.70;0.70;;;19.90;92.20;;;;;;5019654;28;20426;-57
2022/07/29 02:37:37;;;;;;;0.50;0.50;;;19.90;92.40;;;;;;5029703;28;20501;-57
2022/07/29 02:40:05;;;;;;;0.50;0.50;;;19.90;92.40;;;;;;5028897;28;20492;-57
2022/07/29 02:42:35;;;;;;;0.50;0.50;;;19.80;92.40;;;;;;5025972;28;20442;-57
2022/07/29 02:45:03;;;;;;;0.40;0.40;;;19.70;92.50;;;;;;5026207;28;20466;-57
2022/07/29 02:47:47;;;;;;;1.67;0.50;;;19.70;92.60;;;;;;5030364;28;20443;-57
2022/07/29 02:50:51;;;;;;;0.40;0.40;;;19.60;92.80;;;;;;5019611;28;20438;-57
2022/07/29 02:53:22;;;;;;;0.40;0.40;;;19.60;93.00;;;;;;5009720;28;20442;-57
2022/07/29 02:55:59;;;;;;;0.50;0.50;;;19.50;93.10;;;;;;5006035;28;20514;-57
2022/07/29 02:58:30;;;;;;;0.40;0.40;;;19.50;93.20;;;;;;5007166;28;20428;-57
2022/07/29 03:01:04;;;;;;;0.50;0.50;;;19.40;93.30;;;;;;5014377;28;20432;-57
2022/07/29 03:03:36;;;;;;;0.40;0.40;;;19.30;93.50;;;;;;4998962;28;20430;-57
2022/07/29 03:06:04;;;;;;;0.40;0.40;;;19.20;93.60;;;;;;5006774;28;20523;-57
2022/07/29 03:08:32;;;;;;;0.60;0.60;;;19.20;93.80;;;;;;5007582;28;20432;-57
2022/07/29 03:11:03;;;;;;;1.20;0.30;;;19.10;93.80;;;;;;5008401;28;20510;-57
2022/07/29 03:13:30;;;;;;;0.60;0.45;;;19.00;93.90;;;;;;5011860;28;20433;-57
2022/07/29 03:15:59;;;;;;;0.60;0.60;;;18.90;94.10;;;;;;5018139;28;20431;-57
2022/07/29 03:18:26;;;;;;;0.47;0.47;;;18.80;94.20;;;;;;5012819;28;20488;-56
2022/07/29 03:20:54;;;;;;;0.70;0.70;;;18.70;94.70;;;;;;5008083;28;20712;-57
2022/07/29 03:23:23;;;;;;;0.43;0.43;;;18.60;94.70;;;;;;5010572;28;20437;-57
2022/07/29 03:25:50;;;;;;;0.30;0.30;;;18.50;95.00;;;;;;5006557;28;20506;-57
2022/07/29 03:28:18;;;;;;;0.30;0.30;;;18.40;95.10;;;;;;5009618;28;20862;-57
2022/07/29 03:30:45;;;;;;;0.40;0.40;;;18.30;95.20;;;;;;5030000;28;20437;-56
2022/07/29 03:33:12;;;;;;;0.40;0.40;;;18.30;95.50;;;;;;5024094;28;20474;-57
2022/07/29 03:35:40;;;;;;;0.45;0.45;;;18.20;95.80;;;;;;5039092;28;20429;-57
2022/07/29 03:38:06;;;;;;;0.50;0.50;;;18.20;95.90;;;;;;5030283;28;20863;-57
2022/07/29 03:40:46;;;;;;;0.40;0.40;;;18.10;96.10;;;;;;5025076;28;20827;-57
2022/07/29 03:43:17;;;;;;;0.30;0.30;;;18.20;96.20;;;;;;5023700;28;20477;-57
2022/07/29 03:45:47;;;;;;;0.50;0.50;;;18.10;96.30;;;;;;5030888;28;20444;-56
2022/07/29 03:48:17;;;;;;;0.55;0.50;;;18.10;96.40;;;;;;5030472;28;20432;-56
2022/07/29 03:50:44;;;;;;;0.65;0.60;;;18.00;96.60;;;;;;5029626;28;20784;-56
2022/07/29 03:53:12;;;;;;;0.50;0.50;;;17.90;96.70;;;;;;5030492;28;20431;-57
2022/07/29 03:55:45;;;;;;;0.60;0.50;;;17.80;96.90;;;;;;5041146;28;20459;-57
2022/07/29 03:58:13;;;;;;;0.57;0.57;;;17.70;97.20;;;;;;5030230;28;20858;-57
2022/07/29 04:00:41;;;;;;;0.57;0.50;;;17.70;97.30;;;;;;5037068;28;20523;-58
2022/07/29 04:03:10;;;;;;;0.38;0.38;;;17.70;97.60;;;;;;5021360;28;20438;-57
2022/07/29 04:05:37;;;;;;;0.50;0.50;;;17.60;97.80;;;;;;5028250;28;20496;-58
2022/07/29 04:08:04;;;;;;;0.50;0.50;;;17.60;98.10;;;;;;5022333;28;20530;-57
2022/07/29 04:10:32;;;;;;;0.50;0.50;;;17.60;98.50;;;;;;5027977;28;20439;-57
2022/07/29 04:13:01;;;;;;;0.50;0.50;;;17.60;98.70;;;;;;5022187;28;20426;-56
2022/07/29 04:15:28;;;;;;;0.45;0.45;;;17.60;98.90;;;;;;5028901;28;20431;-57
2022/07/29 04:17:57;;;;;;;0.43;0.43;;;17.60;99.10;;;;;;5031440;28;20880;-56
2022/07/29 04:20:24;;;;;;;0.60;0.60;;;17.50;99.40;;;;;;5017187;28;20454;-57
2022/07/29 04:22:52;;;;;;;0.70;0.70;;;17.50;99.50;;;;;;5024351;28;20509;-56
2022/07/29 04:25:19;;;;;;;1.90;0.50;;;17.50;99.70;;;;;;5024854;28;20543;-56
2022/07/29 04:28:00;;;;;;;0.45;0.43;;;17.40;99.90;;;;;;5021094;28;20494;-56
2022/07/29 04:30:27;;;;;;;0.55;0.50;;;17.50;99.90;;;;;;5027029;28;20510;-56
2022/07/29 04:32:55;;;;;;;0.95;0.60;;;17.40;99.90;;;;;;5024144;28;21035;-56
2022/07/29 04:35:22;;;;;;;0.50;0.50;;;17.40;99.90;;;;;;5018101;28;20515;-56
2022/07/29 04:37:49;;;;;;;0.57;0.57;;;17.50;99.90;;;;;;5030047;28;20436;-56
2022/07/29 04:40:15;;;;;;;0.40;0.40;;;17.50;99.90;;;;;;5017764;28;20435;-56
2022/07/29 04:42:42;;;;;;;1.90;0.70;;;17.60;99.90;;;;;;5025145;28;20467;-56
2022/07/29 04:45:15;;;;;;;0.90;0.50;;;17.60;99.90;;;;;;5008720;28;20518;-57
2022/07/29 04:47:42;;;;;;;0.40;0.40;;;17.70;99.90;;;;;;5022300;28;20848;-56
2022/07/29 04:50:09;;;;;;;0.73;0.73;;;17.90;99.90;;;;;;5033749;28;20475;-57
2022/07/29 04:52:36;;;;;;;1.10;0.60;;;18.30;99.90;;;;;;5020317;28;20434;-55
2022/07/29 04:55:04;;;;;;;0.60;0.60;;;18.70;99.90;;;;;;5032597;28;20580;-55
2022/07/29 04:57:32;;;;;;;0.45;0.45;;;19.20;99.80;;;;;;5018808;28;20488;-55
2022/07/29 04:59:59;;;;;;;0.50;0.50;;;19.70;99.10;;;;;;5013552;28;20577;-55
2022/07/29 05:02:25;;;;;;;0.60;0.30;;;20.00;98.60;;;;;;5025183;28;20836;-55
2022/07/29 05:04:52;;;;;;;0.43;0.43;;;20.40;98.00;;;;;;5027951;28;20445;-55
2022/07/29 05:07:19;;;;;;;0.50;0.50;;;20.70;97.90;;;;;;5028055;28;20440;-55
2022/07/29 05:09:47;;;;;;;0.40;0.40;;;21.10;97.40;;;;;;5017920;28;20521;-55
2022/07/29 05:12:14;;;;;;;0.70;0.60;;;21.40;96.80;;;;;;5020692;28;21059;-55
2022/07/29 05:14:40;;;;;;;0.57;0.50;;;21.50;96.60;;;;;;5019422;28;20431;-56
2022/07/29 05:17:08;;;;;;;0.50;0.50;;;21.60;96.50;;;;;;5022719;28;20530;-56
2022/07/29 05:19:35;;;;;;;0.52;0.52;;;21.60;96.20;;;;;;5020914;28;20458;-56
2022/07/29 05:22:05;;;;;;;0.50;0.50;;;21.80;96.20;;;;;;5025937;28;20570;-56
2022/07/29 05:24:32;;;;;;;0.40;0.40;;;22.10;95.80;;;;;;5035445;28;20940;-55
2022/07/29 05:26:59;;;;;;;0.40;0.40;;;22.10;95.80;;;;;;5023096;28;20452;-55
2022/07/29 05:29:27;;;;;;;0.40;0.40;;;22.30;95.70;;;;;;5020205;28;20518;-58
2022/07/29 05:32:12;;;;;;;0.40;0.40;;;22.50;95.40;;;;;;5034223;28;20431;-55
2022/07/29 05:34:40;;;;;;;0.50;0.50;;;22.90;95.20;;;;;;5015306;28;20515;-55
2022/07/29 05:37:20;;;;;;;0.40;0.40;;;23.10;94.90;;;;;;5031756;28;20427;-55
2022/07/29 05:39:47;;;;;;;0.40;0.40;;;23.40;95.00;;;;;;5027520;28;20559;-56
2022/07/29 05:42:23;;;;;;;0.40;0.40;;;23.50;94.60;;;;;;5034896;28;20517;-56
2022/07/29 05:44:49;;;;;;;0.40;0.40;;;23.80;94.20;;;;;;5027479;28;20875;-56
2022/07/29 05:47:16;;;;;;;0.73;0.50;;;23.90;94.20;;;;;;5036563;28;20929;-56
2022/07/29 05:49:43;;;;;;;0.50;0.50;;;24.10;93.90;;;;;;5026970;28;20434;-56
2022/07/29 05:52:10;;;;;;;0.50;0.50;;;24.30;93.70;;;;;;5022764;28;20812;-56
2022/07/29 05:54:44;;;;;;;0.50;0.50;;;24.40;93.40;;;;;;5017936;28;20514;-56
2022/07/29 05:57:21;;;;;;;0.70;0.70;;;24.40;93.50;;;;;;5021641;28;20527;-56
2022/07/29 05:59:49;;;;;;;0.50;0.50;;;24.50;93.00;;;;;;5019132;28;20442;-56
2022/07/29 06:02:17;;;;;;;0.30;0.30;;;24.90;92.90;;;;;;5018763;28;20457;-56
2022/07/29 06:04:44;;;;;;;0.40;0.40;;;25.20;92.50;;;;;;5012024;28;21146;-56
2022/07/29 06:07:11;;;;;;;0.45;0.45;;;25.30;92.20;;;;;;5015883;28;20435;-56
2022/07/29 06:09:41;;;;;;;0.45;0.45;;;25.70;92.20;;;;;;5021959;28;20530;-56
2022/07/29 06:12:11;;;;;;;0.40;0.40;;;25.50;91.50;;;;;;5019075;28;20438;-56
2022/07/29 06:14:39;;;;;;;0.55;0.55;;;25.50;91.20;;;;;;5026940;28;20860;-56
2022/07/29 06:17:08;;;;;;;0.52;0.52;;;25.30;91.30;;;;;;5030471;28;20530;-56
2022/07/29 06:19:36;;;;;;;0.50;0.50;;;25.40;91.30;;;;;;5026924;28;20525;-56
2022/07/29 06:22:03;;;;;;;0.40;0.40;;;25.40;91.20;;;;;;5024895;28;20423;-56
2022/07/29 06:24:30;;;;;;;0.50;0.50;;;25.50;91.10;;;;;;5026474;28;20430;-57
2022/07/29 06:26:57;;;;;;;0.40;0.40;;;25.50;90.90;;;;;;5027918;28;20853;-56
2022/07/29 06:29:24;;;;;;;0.50;0.50;;;25.80;90.80;;;;;;5026077;28;20427;-57
2022/07/29 06:31:53;;;;;;;0.45;0.45;;;25.70;90.40;;;;;;5026017;28;20436;-57
2022/07/29 06:34:20;;;;;;;0.52;0.52;;;25.80;90.70;;;;;;5017327;28;20428;-57
2022/07/29 06:36:46;;;;;;;0.63;0.63;;;26.10;90.10;;;;;;5026103;28;20429;-56
2022/07/29 06:39:14;;;;;;;0.40;0.40;;;26.20;89.90;;;;;;5024463;28;20498;-56
2022/07/29 06:41:41;;;;;;;1.02;0.55;;;26.40;90.40;;;;;;5019890;28;20485;-56
2022/07/29 06:44:11;;;;;;;0.43;0.43;;;26.50;89.80;;;;;;5023945;28;20426;-56
2022/07/29 06:46:37;;;;;;;0.60;0.60;;;26.80;89.70;;;;;;5023755;28;20521;-56
2022/07/29 06:49:04;;;;;;;0.68;0.50;;;27.20;89.10;;;;;;5017093;28;20439;-56
2022/07/29 06:51:32;;;;;;;0.50;0.50;;;27.70;88.00;;;;;;5016865;28;20933;-57
2022/07/29 06:53:59;;;;;;;0.50;0.50;;;27.80;87.10;;;;;;5018819;28;20431;-56
2022/07/29 06:56:35;;;;;;;1.60;0.50;;;27.40;86.90;;;;;;5021528;28;20427;-56
2022/07/29 06:59:09;;;;;;;0.50;0.50;;;27.50;87.80;;;;;;5023590;28;20438;-56
2022/07/29 07:01:37;;;;;;;0.60;0.60;;;27.10;87.00;;;;;;5023554;28;20952;-56
2022/07/29 07:04:05;;;;;;;0.43;0.43;;;27.50;87.50;;;;;;5024639;28;20840;-56
2022/07/29 07:06:32;;;;;;;0.50;0.50;;;27.70;88.30;;;;;;5025741;28;20459;-57
2022/07/29 07:08:58;;;;;;;0.47;0.47;;;28.20;86.90;;;;;;5030580;28;20516;-56
2022/07/29 07:11:25;;;;;;;0.75;0.43;;;28.70;86.30;;;;;;5019722;28;20435;-56
2022/07/29 07:13:52;;;;;;;0.50;0.50;;;28.60;85.90;;;;;;5021191;28;21063;-56
2022/07/29 07:16:19;;;;;;;0.55;0.55;;;28.90;85.50;;;;;;5019678;28;20435;-56
2022/07/29 07:18:46;;;;;;;0.60;0.60;;;29.40;85.90;;;;;;5033033;28;20545;-56
2022/07/29 07:21:13;;;;;;;0.50;0.45;;;29.70;84.40;;;;;;5023353;28;20458;-57
2022/07/29 07:23:45;;;;;;;0.57;0.57;;;29.90;86.10;;;;;;5015404;28;20427;-57
2022/07/29 07:26:13;;;;;;;0.50;0.50;;;29.90;83.20;;;;;;5018992;28;20932;-57
2022/07/29 07:28:40;;;;;;;0.60;0.60;;;30.20;83.50;;;;;;5023183;28;20438;-57
2022/07/29 07:31:07;;;;;;;0.60;0.60;;;30.20;83.30;;;;;;5020776;28;20431;-57
2022/07/29 07:33:34;;;;;;;0.43;0.43;;;30.00;82.80;;;;;;5018123;28;20434;-57
2022/07/29 07:36:03;;;;;;;0.55;0.55;;;30.20;83.40;;;;;;5027605;28;20441;-57
2022/07/29 07:38:30;;;;;;;0.50;0.50;;;30.00;82.90;;;;;;5026649;28;20422;-57
2022/07/29 07:40:57;;;;;;;0.63;0.63;;;29.10;83.50;;;;;;5018567;28;20457;-57
2022/07/29 07:43:23;;;;;;;0.57;0.57;;;29.50;83.40;;;;;;5024736;28;20457;-57
2022/07/29 07:45:50;;;;;;;0.43;0.43;;;29.90;83.10;;;;;;5015231;28;20633;-57
2022/07/29 07:48:20;;;;;;;0.70;0.70;;;30.30;82.90;;;;;;5022342;28;20435;-57
2022/07/29 07:50:49;;;;;;;0.55;0.55;;;30.60;81.90;;;;;;5023406;28;20422;-57
2022/07/29 07:53:16;;;;;;;0.40;0.40;;;30.70;82.00;;;;;;5027417;28;20435;-57
2022/07/29 07:55:43;;;;;;;0.45;0.45;;;31.30;82.40;;;;;;5031410;28;20916;-57
2022/07/29 07:58:30;;;;;;;0.50;0.50;;;31.20;81.30;;;;;;5023318;28;20419;-57
2022/07/29 08:00:57;;;;;;;0.60;0.60;;;31.40;81.20;;;;;;5021314;28;21211;-56
2022/07/29 08:03:24;;;;;;;0.40;0.40;;;31.30;81.40;;;;;;5013971;28;20561;-57
2022/07/29 08:05:51;;;;;;;0.50;0.50;;;31.20;81.70;;;;;;5020822;28;20434;-57
2022/07/29 08:08:18;;;;;;;0.60;0.60;;;31.50;81.40;;;;;;5020463;28;20435;-57
2022/07/29 08:10:58;;;;;;;0.50;0.50;;;31.30;81.90;;;;;;5016338;28;20435;-57
2022/07/29 08:13:28;;;;;;;0.60;0.60;;;31.60;82.40;;;;;;5020256;28;20836;-57
2022/07/29 08:16:00;;;;;;;0.68;0.68;;;31.30;81.30;;;;;;5019155;28;20455;-57
2022/07/29 08:18:31;;;;;;;0.70;0.50;;;31.40;82.20;;;;;;5023964;28;20427;-57
2022/07/29 08:20:59;;;;;;;0.80;0.80;;;31.70;82.40;;;;;;5007014;28;20504;-57
2022/07/29 08:23:38;;;;;;;0.68;0.68;;;32.00;83.20;;;;;;5015719;28;20435;-57
2022/07/29 08:26:15;;;;;;;0.52;0.52;;;32.50;82.20;;;;;;5023138;28;20469;-57
2022/07/29 08:28:45;;;;;;;0.55;0.55;;;31.90;81.80;;;;;;5027929;28;20431;-57
2022/07/29 08:31:13;;;;;;;0.50;0.50;;;31.20;84.10;;;;;;5017982;28;20431;-57
2022/07/29 08:33:40;;;;;;;0.50;0.50;;;31.60;83.00;;;;;;5008093;28;20457;-57
2022/07/29 08:36:08;;;;;;;0.70;0.70;;;31.80;84.50;;;;;;5020274;28;20461;-57
2022/07/29 08:38:35;;;;;;;0.63;0.63;;;32.10;83.00;;;;;;4997290;28;20439;-57
2022/07/29 08:41:01;;;;;;;0.60;0.60;;;32.20;83.80;;;;;;5024488;28;20439;-57
2022/07/29 08:43:29;;;;;;;0.70;0.70;;;32.20;83.50;;;;;;5017821;28;21129;-57
2022/07/29 08:45:55;;;;;;;0.80;0.80;;;32.30;83.10;;;;;;5021350;28;20909;-57
2022/07/29 08:48:24;;;;;;;0.63;0.63;;;32.20;83.00;;;;;;5023566;28;20435;-57
2022/07/29 08:50:55;;;;;;;0.60;0.60;;;31.40;84.30;;;;;;5017379;28;20431;-57
2022/07/29 08:53:26;;;;;;;0.60;0.60;;;29.30;87.50;;;;;;5020172;28;20431;-57
2022/07/29 08:55:54;;;;;;;0.50;0.50;;;29.70;88.70;;;;;;5019718;28;20438;-57
2022/07/29 08:58:21;;;;;;;0.60;0.60;;;30.30;87.50;;;;;;5023773;28;20949;-57
2022/07/29 09:00:53;;;;;;;0.50;0.50;;;30.10;86.30;;;;;;5015320;28;20575;-57
2022/07/29 09:03:24;;;;;;;0.80;0.80;;;30.20;87.60;;;;;;5020376;28;20434;-57
2022/07/29 09:05:51;;;;;;;0.70;0.70;;;30.10;86.70;;;;;;5018882;28;20446;-58
2022/07/29 09:08:19;;;;;;;0.80;0.80;;;30.40;86.70;;;;;;5020364;28;20438;-58
2022/07/29 09:10:50;;;;;;;0.63;0.63;;;30.60;86.10;;;;;;5014133;28;20462;-59
2022/07/29 09:13:17;;;;;;;0.70;0.70;;;30.40;86.60;;;;;;5021012;28;20595;-59
2022/07/29 09:15:45;;;;;;;0.70;0.70;;;30.70;85.60;;;;;;5019933;28;20507;-59
2022/07/29 09:18:45;;;;;;;1.40;0.60;;;30.70;85.40;;;;;;5020162;28;20439;-59
2022/07/29 09:24:12;;;;;;;0.65;0.65;;;30.50;86.20;;;;;;5018040;28;20509;-59
2022/07/29 09:26:44;;;;;;;0.75;0.75;;;30.90;87.30;;;;;;5024619;28;20430;-59
2022/07/29 09:29:22;;;;;;;0.63;0.63;;;31.50;87.00;;;;;;5017043;28;20427;-59
2022/07/29 09:31:51;;;;;;;0.70;0.70;;;32.20;85.40;;;;;;5025600;28;20462;-59
2022/07/29 09:34:31;;;;;;;0.50;0.50;;;32.30;84.60;;;;;;5017820;28;21049;-59
2022/07/29 09:36:57;;;;;;;0.65;0.60;;;32.70;84.40;;;;;;5024878;28;20488;-59
2022/07/29 09:39:32;;;;;;;0.70;0.70;;;33.00;83.90;;;;;;5028205;28;20422;-59
2022/07/29 09:42:05;;;;;;;0.60;0.60;;;33.40;83.40;;;;;;5024980;28;20429;-59
2022/07/29 09:44:49;;;;;;;0.80;0.80;;;33.00;83.50;;;;;;5017268;28;20834;-59
2022/07/29 09:47:18;;;;;;;0.70;0.70;;;32.90;86.30;;;;;;5024039;28;20521;-59
2022/07/29 09:49:57;;;;;;;0.60;0.60;;;33.30;84.70;;;;;;5015445;28;20945;-59
2022/07/29 09:52:28;;;;;;;0.70;0.70;;;33.20;85.10;;;;;;5014529;28;20801;-59
2022/07/29 09:55:07;;;;;;;0.70;0.70;;;33.60;84.00;;;;;;5021323;28;20426;-59
2022/07/29 09:57:33;;;;;;;0.90;0.70;;;33.40;83.20;;;;;;5026812;28;20429;-59
2022/07/29 10:00:21;;;;;;;0.50;0.50;;;32.90;84.80;;;;;;5030253;28;20436;-59
2022/07/29 10:02:48;;;;;;;0.65;0.65;;;31.10;85.30;;;;;;5044525;28;20953;-59
2022/07/29 10:05:20;;;;;;;0.80;0.60;;;30.40;86.50;;;;;;5027508;28;20442;-59
2022/07/29 10:07:59;;;;;;;0.65;0.65;;;31.00;87.70;;;;;;5040805;28;20954;-59
2022/07/29 10:10:39;;;;;;;0.75;0.75;;;31.60;87.00;;;;;;5025972;28;20438;-59
2022/07/29 10:13:11;;;;;;;0.50;0.50;;;31.80;87.10;;;;;;5025891;28;20426;-59
2022/07/29 10:15:44;;;;;;;0.60;0.60;;;32.40;85.70;;;;;;5022410;28;20521;-59
2022/07/29 10:18:14;;;;;;;0.70;0.70;;;33.40;87.70;;;;;;5027862;28;20438;-59
2022/07/29 10:20:41;;;;;;;0.68;0.68;;;33.60;84.50;;;;;;5018938;28;20813;-59
2022/07/29 10:23:09;;;;;;;0.70;0.70;;;33.70;83.70;;;;;;5032831;28;21141;-58
2022/07/29 10:25:35;;;;;;;0.70;0.70;;;33.20;84.70;;;;;;5026412;28;20531;-58
2022/07/29 10:28:05;;;;;;;0.70;0.70;;;32.50;85.40;;;;;;5030507;28;20444;-58
2022/07/29 10:30:38;;;;;;;0.50;0.50;;;31.70;87.90;;;;;;5027430;28;20443;-59
2022/07/29 10:33:42;;;;;;;0.55;0.55;;;31.50;87.00;;;;;;5027487;28;20438;-59
2022/07/29 10:36:38;;;;;;;0.60;0.60;;;31.80;88.30;;;;;;5024118;28;20434;-58
2022/07/29 10:39:46;;;;;;;0.70;0.70;;;31.30;87.20;;;;;;5014752;28;20443;-58
2022/07/29 10:42:23;;;;;;;0.63;0.63;;;31.20;87.00;;;;;;5025440;28;20893;-58
2022/07/29 10:45:01;;;;;;;0.60;0.60;;;31.50;88.30;;;;;;5016276;28;20492;-58
2022/07/29 10:47:30;;;;;;;0.75;0.75;;;31.20;88.00;;;;;;5036007;28;20442;-57
2022/07/29 10:50:03;;;;;;;0.80;0.80;;;31.10;87.60;;;;;;5018926;28;20435;-59
2022/07/29 10:52:56;;;;;;;0.55;0.55;;;31.20;87.30;;;;;;5032790;28;20530;-59
2022/07/29 10:55:42;;;;;;;1.30;0.80;;;32.00;87.10;;;;;;5024302;28;21138;-59
2022/07/29 10:58:23;;;;;;;0.60;0.60;;;32.60;86.90;;;;;;5007958;28;20441;-59
2022/07/29 11:00:54;;;;;;;0.60;0.60;;;32.70;86.00;;;;;;5029271;28;20844;-60
2022/07/29 11:03:45;;;;;;;0.70;0.70;;;32.60;86.40;;;;;;5041740;28;20429;-59
2022/07/29 11:06:16;;;;;;;0.60;0.60;;;33.20;85.20;;;;;;5026202;28;20439;-60
2022/07/29 11:09:19;;;;;;;0.88;0.88;;;33.10;84.70;;;;;;5028248;28;20431;-58
2022/07/29 11:12:03;;;;;;;0.82;0.75;;;33.20;85.10;;;;;;5034771;28;20579;-58
2022/07/29 11:14:58;;;;;;;0.60;0.60;;;32.70;85.20;;;;;;5029196;28;20450;-58
2022/07/29 11:17:25;;;;;;;0.50;0.50;;;32.50;87.10;;;;;;5038836;28;20450;-59
2022/07/29 11:20:42;;;;;;;0.70;0.70;;;32.30;86.70;;;;;;5026992;28;20430;-58
2022/07/29 11:23:38;;;;;;;0.90;0.90;;;32.40;85.40;;;;;;5025144;28;20438;-59
2022/07/29 11:26:20;;;;;;;0.70;0.70;;;32.40;85.10;;;;;;5022428;28;20451;-59
2022/07/29 11:29:00;;;;;;;1.50;0.60;;;32.60;85.10;;;;;;5015939;28;20520;-59
2022/07/29 11:31:45;;;;;;;0.73;0.73;;;33.10;85.00;;;;;;5023156;28;20436;-59
2022/07/29 11:34:35;;;;;;;0.70;0.70;;;33.60;84.80;;;;;;5024647;28;20435;-59
2022/07/29 11:37:12;;;;;;;0.70;0.70;;;34.00;85.10;;;;;;5026315;28;20430;-59
2022/07/29 11:39:41;;;;;;;0.60;0.60;;;34.20;83.50;;;;;;5019821;28;20504;-59
2022/07/29 11:42:21;;;;;;;0.70;0.70;;;33.10;83.80;;;;;;5026145;28;20852;-58
2022/07/29 11:45:19;;;;;;;0.70;0.70;;;32.20;85.40;;;;;;5040994;28;20429;-58
2022/07/29 11:48:14;;;;;;;0.70;0.70;;;32.30;85.40;;;;;;5030632;28;20422;-58
2022/07/29 11:50:57;;;;;;;0.82;0.82;;;33.10;85.20;;;;;;5031251;28;20533;-59
2022/07/29 11:53:27;;;;;;;0.70;0.70;;;33.70;84.20;;;;;;5024150;28;20435;-59
2022/07/29 11:55:59;;;;;;;0.70;0.70;;;34.20;84.60;;;;;;5023033;28;20476;-60
2022/07/29 11:58:28;;;;;;;0.80;0.80;;;34.80;84.40;;;;;;5020190;28;20453;-58
2022/07/29 12:00:57;;;;;;;0.60;0.60;;;34.10;82.20;;;;;;5026400;28;20426;-59
2022/07/29 12:03:30;;;;;;;0.60;0.60;;;34.00;83.30;;;;;;5029000;28;20491;-59
2022/07/29 12:06:01;;;;;;;0.65;0.60;;;34.20;83.40;;;;;;5026327;28;20435;-59
2022/07/29 12:08:29;;;;;;;0.80;0.80;;;34.20;82.30;;;;;;5025619;28;20471;-60
2022/07/29 12:10:56;;;;;;;0.80;0.80;;;33.90;83.10;;;;;;5048252;28;20471;-59
2022/07/29 12:13:24;;;;;;;1.20;0.80;;;34.00;83.60;;;;;;5013675;28;20516;-59
2022/07/29 12:16:04;;;;;;;0.60;0.60;;;34.50;83.90;;;;;;5024131;28;20499;-59
2022/07/29 12:18:31;;;;;;;0.70;0.70;;;34.80;83.20;;;;;;5021566;28;20856;-59
2022/07/29 12:21:03;;;;;;;0.70;0.70;;;34.30;83.20;;;;;;5029947;28;20429;-58
2022/07/29 12:23:33;;;;;;;1.40;0.60;;;34.70;83.60;;;;;;5029248;28;20424;-59
2022/07/29 12:26:05;;;;;;;0.60;0.60;;;35.40;82.40;;;;;;5026973;28;21074;-60
2022/07/29 12:28:39;;;;;;;0.70;0.70;;;35.90;81.20;;;;;;5023841;28;20475;-58
2022/07/29 12:31:13;;;;;;;0.70;0.70;;;35.20;81.90;;;;;;5023386;28;20528;-59
2022/07/29 12:33:40;;;;;;;0.70;0.70;;;34.90;82.10;;;;;;5025675;28;20488;-59
2022/07/29 12:36:07;;;;;;;1.00;0.55;;;34.50;83.40;;;;;;5022619;28;20962;-59
2022/07/29 12:38:43;;;;;;;0.55;0.55;;;34.70;83.00;;;;;;5031515;28;20441;-58
2022/07/29 12:41:10;;;;;;;0.68;0.68;;;34.70;82.40;;;;;;5033096;28;20431;-59
2022/07/29 12:43:37;;;;;;;0.70;0.70;;;34.90;83.40;;;;;;5026026;28;20609;-59
2022/07/29 12:46:14;;;;;;;0.70;0.70;;;34.90;82.40;;;;;;5018758;28;20441;-58
2022/07/29 12:48:43;;;;;;;0.80;0.80;;;34.90;82.70;;;;;;5013405;28;20435;-58
2022/07/29 12:51:12;;;;;;;0.90;0.90;;;34.50;84.00;;;;;;5024589;28;20496;-59
2022/07/29 12:53:41;;;;;;;0.60;0.60;;;33.80;83.20;;;;;;5030904;28;20585;-58
2022/07/29 12:56:16;;;;;;;0.70;0.70;;;33.50;83.50;;;;;;5023172;28;20441;-58
2022/07/29 12:59:15;;;;;;;0.68;0.68;;;33.20;84.00;;;;;;5020042;28;20533;-58
2022/07/29 13:01:47;;;;;;;0.85;0.80;;;33.60;84.20;;;;;;5029012;28;20974;-59
2022/07/29 13:04:29;;;;;;;0.60;0.60;;;33.90;83.60;;;;;;5013525;28;20434;-59
2022/07/29 13:07:11;;;;;;;0.68;0.68;;;32.90;84.20;;;;;;5016199;28;20431;-59
2022/07/29 13:09:47;;;;;;;0.63;0.63;;;32.30;85.10;;;;;;5022972;28;20809;-59
2022/07/29 13:12:17;;;;;;;0.77;0.77;;;32.60;85.20;;;;;;5019058;28;20445;-58
2022/07/29 13:14:46;;;;;;;0.80;0.80;;;31.90;85.80;;;;;;5022354;28;20518;-58
2022/07/29 13:17:27;;;;;;;0.47;0.45;;;32.40;87.20;;;;;;5014603;28;20433;-59